sensor_id;sensor_type;location;lat;lon;timestamp;temperature;humidity
35491;DHT22;21605;52.068;20.806;2023-11-19T00:02:15;2.10;99.90
35491;DHT22;21605;52.068;20.806;2023-11-19T00:04:41;2.10;99.90
35491;DHT22;21605;52.068;20.806;2023-11-19T00:07:07;2.10;99.90
35491;DHT22;21605;52.068;20.806;2023-11-19T00:09:33;2.10;99.90
35491;DHT22;21605;52.068;20.806;2023-11-19T00:12:02;2.10;99.90
35491;DHT22;21605;52.068;20.806;2023-11-19T00:14:28;2.10;99.90
35491;DHT22;21605;52.068;20.806;2023-11-19T00:16:55;2.10;99.90
35491;DHT22;21605;52.068;20.806;2023-11-19T00:19:20;2.10;99.90
35491;DHT22;21605;52.068;20.806;2023-11-19T00:21:46;2.10;99.90
35491;DHT22;21605;52.068;20.806;2023-11-19T00:24:12;2.20;99.90
35491;DHT22;21605;52.068;20.806;2023-11-19T00:26:38;2.20;99.90
35491;DHT22;21605;52.068;20.806;2023-11-19T00:29:04;2.20;99.90
35491;DHT22;21605;52.068;20.806;2023-11-19T00:31:30;2.20;99.90
35491;DHT22;21605;52.068;20.806;2023-11-19T00:33:56;2.20;99.90
35491;DHT22;21605;52.068;20.806;2023-11-19T00:36:21;2.20;99.90
35491;DHT22;21605;52.068;20.806;2023-11-19T00:38:49;2.20;99.90
35491;DHT22;21605;52.068;20.806;2023-11-19T00:41:15;2.20;99.90
35491;DHT22;21605;52.068;20.806;2023-11-19T00:43:42;2.20;99.90
35491;DHT22;21605;52.068;20.806;2023-11-19T00:46:08;4.20;99.90
35491;DHT22;21605;52.068;20.806;2023-11-19T00:48:34;2.20;99.90
35491;DHT22;21605;52.068;20.806;2023-11-19T00:50:59;2.20;99.90
35491;DHT22;21605;52.068;20.806;2023-11-19T00:53:25;2.20;99.90
35491;DHT22;21605;52.068;20.806;2023-11-19T00:55:50;2.20;99.90
35491;DHT22;21605;52.068;20.806;2023-11-19T00:58:16;2.20;99.90
35491;DHT22;21605;52.068;20.806;2023-11-19T01:00:43;2.20;99.90
35491;DHT22;21605;52.068;20.806;2023-11-19T01:03:10;2.20;99.90
35491;DHT22;21605;52.068;20.806;2023-11-19T01:05:37;2.20;99.90
35491;DHT22;21605;52.068;20.806;2023-11-19T01:08:02;2.20;99.90
35491;DHT22;21605;52.068;20.806;2023-11-19T01:10:30;2.20;99.90
35491;DHT22;21605;52.068;20.806;2023-11-19T01:12:55;2.20;99.90
35491;DHT22;21605;52.068;20.806;2023-11-19T01:15:21;2.20;99.90
35491;DHT22;21605;52.068;20.806;2023-11-19T01:17:48;2.20;99.90
35491;DHT22;21605;52.068;20.806;2023-11-19T01:20:13;2.20;99.90
35491;DHT22;21605;52.068;20.806;2023-11-19T01:22:39;2.20;99.90
35491;DHT22;21605;52.068;20.806;2023-11-19T01:25:06;2.20;99.90
35491;DHT22;21605;52.068;20.806;2023-11-19T01:27:32;2.20;99.90
35491;DHT22;21605;52.068;20.806;2023-11-19T01:30:01;2.20;99.90
35491;DHT22;21605;52.068;20.806;2023-11-19T01:32:31;2.20;99.90
35491;DHT22;21605;52.068;20.806;2023-11-19T01:34:57;2.20;99.90
35491;DHT22;21605;52.068;20.806;2023-11-19T01:37:23;2.20;99.90
35491;DHT22;21605;52.068;20.806;2023-11-19T01:39:48;2.20;99.90
35491;DHT22;21605;52.068;20.806;2023-11-19T01:42:14;2.20;99.90
35491;DHT22;21605;52.068;20.806;2023-11-19T01:44:41;2.20;99.90
35491;DHT22;21605;52.068;20.806;2023-11-19T01:47:08;2.20;99.90
35491;DHT22;21605;52.068;20.806;2023-11-19T01:49:34;2.20;99.90
35491;DHT22;21605;52.068;20.806;2023-11-19T01:52:00;2.20;99.90
35491;DHT22;21605;52.068;20.806;2023-11-19T01:54:26;2.20;99.90
35491;DHT22;21605;52.068;20.806;2023-11-19T01:56:56;2.20;99.90
35491;DHT22;21605;52.068;20.806;2023-11-19T01:59:23;2.20;99.90
35491;DHT22;21605;52.068;20.806;2023-11-19T02:01:53;2.20;99.90
35491;DHT22;21605;52.068;20.806;2023-11-19T02:04:19;2.20;99.90
35491;DHT22;21605;52.068;20.806;2023-11-19T02:06:47;2.20;99.90
35491;DHT22;21605;52.068;20.806;2023-11-19T02:09:14;2.30;99.90
35491;DHT22;21605;52.068;20.806;2023-11-19T02:11:40;2.20;99.90
35491;DHT22;21605;52.068;20.806;2023-11-19T02:14:06;2.20;99.90
35491;DHT22;21605;52.068;20.806;2023-11-19T02:16:32;2.20;99.90
35491;DHT22;21605;52.068;20.806;2023-11-19T02:18:57;2.20;99.90
35491;DHT22;21605;52.068;20.806;2023-11-19T02:21:23;2.20;99.90
35491;DHT22;21605;52.068;20.806;2023-11-19T02:23:49;2.20;99.90
35491;DHT22;21605;52.068;20.806;2023-11-19T02:26:33;2.20;99.90
35491;DHT22;21605;52.068;20.806;2023-11-19T02:29:01;2.20;99.90
35491;DHT22;21605;52.068;20.806;2023-11-19T02:31:28;2.20;99.90
35491;DHT22;21605;52.068;20.806;2023-11-19T02:33:54;2.20;99.90
35491;DHT22;21605;52.068;20.806;2023-11-19T02:36:20;2.20;99.90
35491;DHT22;21605;52.068;20.806;2023-11-19T02:38:47;2.20;99.90
35491;DHT22;21605;52.068;20.806;2023-11-19T02:41:14;2.20;99.90
35491;DHT22;21605;52.068;20.806;2023-11-19T02:43:39;2.20;99.90
35491;DHT22;21605;52.068;20.806;2023-11-19T02:46:05;2.20;99.90
35491;DHT22;21605;52.068;20.806;2023-11-19T02:48:37;2.20;99.90
35491;DHT22;21605;52.068;20.806;2023-11-19T02:51:03;2.20;99.90
35491;DHT22;21605;52.068;20.806;2023-11-19T02:53:29;2.20;99.90
35491;DHT22;21605;52.068;20.806;2023-11-19T02:55:55;2.20;99.90
35491;DHT22;21605;52.068;20.806;2023-11-19T02:58:31;2.20;99.90
35491;DHT22;21605;52.068;20.806;2023-11-19T03:00:57;2.20;99.90
35491;DHT22;21605;52.068;20.806;2023-11-19T03:03:27;2.20;99.90
35491;DHT22;21605;52.068;20.806;2023-11-19T03:06:07;2.10;99.90
35491;DHT22;21605;52.068;20.806;2023-11-19T03:08:34;2.10;99.90
35491;DHT22;21605;52.068;20.806;2023-11-19T03:11:00;2.10;99.90
35491;DHT22;21605;52.068;20.806;2023-11-19T03:13:26;2.10;99.90
35491;DHT22;21605;52.068;20.806;2023-11-19T03:15:52;2.20;99.90
35491;DHT22;21605;52.068;20.806;2023-11-19T03:18:19;2.20;99.90
35491;DHT22;21605;52.068;20.806;2023-11-19T03:20:46;2.20;99.90
35491;DHT22;21605;52.068;20.806;2023-11-19T03:23:12;2.20;99.90
35491;DHT22;21605;52.068;20.806;2023-11-19T03:25:38;2.20;99.90
35491;DHT22;21605;52.068;20.806;2023-11-19T03:28:04;2.20;99.90
35491;DHT22;21605;52.068;20.806;2023-11-19T03:30:30;2.20;99.90
35491;DHT22;21605;52.068;20.806;2023-11-19T03:32:56;2.20;99.90
35491;DHT22;21605;52.068;20.806;2023-11-19T03:35:23;2.20;99.90
35491;DHT22;21605;52.068;20.806;2023-11-19T03:37:49;2.20;99.90
35491;DHT22;21605;52.068;20.806;2023-11-19T03:40:15;2.20;99.90
35491;DHT22;21605;52.068;20.806;2023-11-19T03:42:41;2.20;99.90
35491;DHT22;21605;52.068;20.806;2023-11-19T03:45:07;2.20;99.90
35491;DHT22;21605;52.068;20.806;2023-11-19T03:47:34;2.20;99.90
35491;DHT22;21605;52.068;20.806;2023-11-19T03:50:01;2.20;99.90
35491;DHT22;21605;52.068;20.806;2023-11-19T03:52:27;2.20;99.90
35491;DHT22;21605;52.068;20.806;2023-11-19T03:54:53;2.20;99.90
35491;DHT22;21605;52.068;20.806;2023-11-19T03:57:21;2.20;99.90
35491;DHT22;21605;52.068;20.806;2023-11-19T03:59:46;2.20;99.90
35491;DHT22;21605;52.068;20.806;2023-11-19T04:02:12;2.20;99.90
35491;DHT22;21605;52.068;20.806;2023-11-19T04:04:38;2.20;99.90
35491;DHT22;21605;52.068;20.806;2023-11-19T04:07:05;2.20;99.90
35491;DHT22;21605;52.068;20.806;2023-11-19T04:09:31;2.20;99.90
35491;DHT22;21605;52.068;20.806;2023-11-19T04:11:59;2.20;99.90
35491;DHT22;21605;52.068;20.806;2023-11-19T04:14:25;2.20;99.90
35491;DHT22;21605;52.068;20.806;2023-11-19T04:16:51;2.20;99.90
35491;DHT22;21605;52.068;20.806;2023-11-19T04:19:17;2.20;99.90
35491;DHT22;21605;52.068;20.806;2023-11-19T04:21:43;2.20;99.90
35491;DHT22;21605;52.068;20.806;2023-11-19T04:24:09;2.20;99.90
35491;DHT22;21605;52.068;20.806;2023-11-19T04:26:43;2.10;99.90
35491;DHT22;21605;52.068;20.806;2023-11-19T04:29:12;2.20;99.90
35491;DHT22;21605;52.068;20.806;2023-11-19T04:31:38;2.20;99.90
35491;DHT22;21605;52.068;20.806;2023-11-19T04:34:05;2.20;99.90
35491;DHT22;21605;52.068;20.806;2023-11-19T04:36:32;2.10;99.90
35491;DHT22;21605;52.068;20.806;2023-11-19T04:38:58;2.10;99.90
35491;DHT22;21605;52.068;20.806;2023-11-19T04:41:25;2.10;99.90
35491;DHT22;21605;52.068;20.806;2023-11-19T04:43:51;2.10;99.90
35491;DHT22;21605;52.068;20.806;2023-11-19T04:46:16;2.10;99.90
35491;DHT22;21605;52.068;20.806;2023-11-19T04:48:42;2.10;99.90
35491;DHT22;21605;52.068;20.806;2023-11-19T04:51:08;2.10;99.90
35491;DHT22;21605;52.068;20.806;2023-11-19T04:53:36;2.10;99.90
35491;DHT22;21605;52.068;20.806;2023-11-19T04:56:10;2.10;99.90
35491;DHT22;21605;52.068;20.806;2023-11-19T04:58:36;2.10;99.90
35491;DHT22;21605;52.068;20.806;2023-11-19T05:01:03;2.10;99.90
35491;DHT22;21605;52.068;20.806;2023-11-19T05:03:29;2.10;99.90
35491;DHT22;21605;52.068;20.806;2023-11-19T05:05:55;2.10;99.90
35491;DHT22;21605;52.068;20.806;2023-11-19T05:08:21;2.10;99.90
35491;DHT22;21605;52.068;20.806;2023-11-19T05:10:46;2.10;99.90
35491;DHT22;21605;52.068;20.806;2023-11-19T05:13:12;2.10;99.90
35491;DHT22;21605;52.068;20.806;2023-11-19T05:15:38;2.10;99.90
35491;DHT22;21605;52.068;20.806;2023-11-19T05:18:03;2.10;99.90
35491;DHT22;21605;52.068;20.806;2023-11-19T05:20:30;2.60;99.90
35491;DHT22;21605;52.068;20.806;2023-11-19T05:22:56;2.00;99.90
35491;DHT22;21605;52.068;20.806;2023-11-19T05:25:22;2.00;99.90
35491;DHT22;21605;52.068;20.806;2023-11-19T05:27:47;2.10;99.90
35491;DHT22;21605;52.068;20.806;2023-11-19T05:30:13;2.10;99.90
35491;DHT22;21605;52.068;20.806;2023-11-19T05:32:39;2.10;99.90
35491;DHT22;21605;52.068;20.806;2023-11-19T05:35:05;2.10;99.90
35491;DHT22;21605;52.068;20.806;2023-11-19T05:37:30;2.00;99.90
35491;DHT22;21605;52.068;20.806;2023-11-19T05:39:56;2.00;99.90
35491;DHT22;21605;52.068;20.806;2023-11-19T05:42:22;2.00;99.90
35491;DHT22;21605;52.068;20.806;2023-11-19T05:44:47;2.00;99.90
35491;DHT22;21605;52.068;20.806;2023-11-19T05:47:13;2.00;99.90
35491;DHT22;21605;52.068;20.806;2023-11-19T05:49:38;2.10;99.90
35491;DHT22;21605;52.068;20.806;2023-11-19T05:52:04;2.10;99.90
35491;DHT22;21605;52.068;20.806;2023-11-19T05:54:33;2.20;99.90
35491;DHT22;21605;52.068;20.806;2023-11-19T05:57:04;2.10;99.90
35491;DHT22;21605;52.068;20.806;2023-11-19T05:59:30;2.10;99.90
35491;DHT22;21605;52.068;20.806;2023-11-19T06:01:57;0.90;99.90
35491;DHT22;21605;52.068;20.806;2023-11-19T06:04:23;2.00;99.90
35491;DHT22;21605;52.068;20.806;2023-11-19T06:06:48;2.00;99.90
35491;DHT22;21605;52.068;20.806;2023-11-19T06:09:14;2.00;99.90
35491;DHT22;21605;52.068;20.806;2023-11-19T06:11:40;2.00;99.90
35491;DHT22;21605;52.068;20.806;2023-11-19T06:14:06;2.00;99.90
35491;DHT22;21605;52.068;20.806;2023-11-19T06:16:32;2.00;99.90
35491;DHT22;21605;52.068;20.806;2023-11-19T06:18:58;2.00;99.90
35491;DHT22;21605;52.068;20.806;2023-11-19T06:21:24;2.00;99.90
35491;DHT22;21605;52.068;20.806;2023-11-19T06:23:50;1.90;99.90
35491;DHT22;21605;52.068;20.806;2023-11-19T06:26:17;1.80;99.90
35491;DHT22;21605;52.068;20.806;2023-11-19T06:28:43;1.80;99.90
35491;DHT22;21605;52.068;20.806;2023-11-19T06:31:10;1.80;99.90
35491;DHT22;21605;52.068;20.806;2023-11-19T06:33:35;1.90;99.90
35491;DHT22;21605;52.068;20.806;2023-11-19T06:36:01;1.80;99.90
35491;DHT22;21605;52.068;20.806;2023-11-19T06:38:27;1.80;99.90
35491;DHT22;21605;52.068;20.806;2023-11-19T06:40:52;1.80;99.90
35491;DHT22;21605;52.068;20.806;2023-11-19T06:43:18;1.80;99.90
35491;DHT22;21605;52.068;20.806;2023-11-19T06:45:43;1.70;99.90
35491;DHT22;21605;52.068;20.806;2023-11-19T06:48:09;1.80;99.90
35491;DHT22;21605;52.068;20.806;2023-11-19T06:50:35;1.80;99.90
35491;DHT22;21605;52.068;20.806;2023-11-19T06:53:01;1.70;99.90
35491;DHT22;21605;52.068;20.806;2023-11-19T06:55:27;1.70;99.90
35491;DHT22;21605;52.068;20.806;2023-11-19T06:57:53;1.70;99.90
35491;DHT22;21605;52.068;20.806;2023-11-19T07:00:18;1.70;99.90
35491;DHT22;21605;52.068;20.806;2023-11-19T07:02:44;1.70;99.90
35491;DHT22;21605;52.068;20.806;2023-11-19T07:05:10;1.70;99.90
35491;DHT22;21605;52.068;20.806;2023-11-19T07:07:37;1.80;99.90
35491;DHT22;21605;52.068;20.806;2023-11-19T07:10:03;1.80;99.90
35491;DHT22;21605;52.068;20.806;2023-11-19T07:12:30;1.70;99.90
35491;DHT22;21605;52.068;20.806;2023-11-19T07:14:55;1.80;99.90
35491;DHT22;21605;52.068;20.806;2023-11-19T07:17:21;1.80;99.90
35491;DHT22;21605;52.068;20.806;2023-11-19T07:19:49;1.80;99.90
35491;DHT22;21605;52.068;20.806;2023-11-19T07:22:15;1.70;99.90
35491;DHT22;21605;52.068;20.806;2023-11-19T07:24:41;1.70;99.90
35491;DHT22;21605;52.068;20.806;2023-11-19T07:27:07;1.80;99.90
35491;DHT22;21605;52.068;20.806;2023-11-19T07:29:34;1.80;99.90
35491;DHT22;21605;52.068;20.806;2023-11-19T07:32:00;1.80;99.90
35491;DHT22;21605;52.068;20.806;2023-11-19T07:34:27;1.80;99.90
35491;DHT22;21605;52.068;20.806;2023-11-19T07:36:53;1.80;99.90
35491;DHT22;21605;52.068;20.806;2023-11-19T07:39:19;1.80;99.90
35491;DHT22;21605;52.068;20.806;2023-11-19T07:41:46;1.90;99.90
35491;DHT22;21605;52.068;20.806;2023-11-19T07:44:12;1.80;99.90
35491;DHT22;21605;52.068;20.806;2023-11-19T07:46:37;1.90;99.90
35491;DHT22;21605;52.068;20.806;2023-11-19T07:49:03;1.80;99.90
35491;DHT22;21605;52.068;20.806;2023-11-19T07:51:28;1.90;99.90
35491;DHT22;21605;52.068;20.806;2023-11-19T07:53:54;1.90;99.90
35491;DHT22;21605;52.068;20.806;2023-11-19T07:56:20;1.80;99.90
35491;DHT22;21605;52.068;20.806;2023-11-19T07:58:45;1.90;99.90
35491;DHT22;21605;52.068;20.806;2023-11-19T08:01:11;1.90;99.90
35491;DHT22;21605;52.068;20.806;2023-11-19T08:03:37;1.90;99.90
35491;DHT22;21605;52.068;20.806;2023-11-19T08:06:04;1.90;99.90
35491;DHT22;21605;52.068;20.806;2023-11-19T08:08:30;1.90;99.90
35491;DHT22;21605;52.068;20.806;2023-11-19T08:10:58;2.00;99.90
35491;DHT22;21605;52.068;20.806;2023-11-19T08:13:24;2.00;99.90
35491;DHT22;21605;52.068;20.806;2023-11-19T08:15:50;2.00;99.90
35491;DHT22;21605;52.068;20.806;2023-11-19T08:18:16;2.00;99.90
35491;DHT22;21605;52.068;20.806;2023-11-19T08:20:43;2.10;99.90
35491;DHT22;21605;52.068;20.806;2023-11-19T08:23:10;2.10;99.90
35491;DHT22;21605;52.068;20.806;2023-11-19T08:25:36;2.10;99.90
35491;DHT22;21605;52.068;20.806;2023-11-19T08:28:02;2.00;99.90
35491;DHT22;21605;52.068;20.806;2023-11-19T08:30:29;2.10;99.90
35491;DHT22;21605;52.068;20.806;2023-11-19T08:32:55;2.10;99.90
35491;DHT22;21605;52.068;20.806;2023-11-19T08:35:20;2.10;99.90
35491;DHT22;21605;52.068;20.806;2023-11-19T08:37:46;2.10;99.90
35491;DHT22;21605;52.068;20.806;2023-11-19T08:40:12;2.10;99.90
35491;DHT22;21605;52.068;20.806;2023-11-19T08:42:40;2.20;99.90
35491;DHT22;21605;52.068;20.806;2023-11-19T08:45:07;2.30;99.90
35491;DHT22;21605;52.068;20.806;2023-11-19T08:47:32;2.40;99.90
35491;DHT22;21605;52.068;20.806;2023-11-19T08:49:58;2.40;99.90
35491;DHT22;21605;52.068;20.806;2023-11-19T08:52:23;2.50;99.90
35491;DHT22;21605;52.068;20.806;2023-11-19T08:54:49;2.60;99.90
35491;DHT22;21605;52.068;20.806;2023-11-19T08:57:15;2.60;99.90
35491;DHT22;21605;52.068;20.806;2023-11-19T08:59:40;2.50;99.90
35491;DHT22;21605;52.068;20.806;2023-11-19T09:02:06;2.60;99.90
35491;DHT22;21605;52.068;20.806;2023-11-19T09:04:32;2.60;99.90
35491;DHT22;21605;52.068;20.806;2023-11-19T09:06:58;2.60;99.90
35491;DHT22;21605;52.068;20.806;2023-11-19T09:09:24;2.60;99.90
35491;DHT22;21605;52.068;20.806;2023-11-19T09:11:50;2.60;99.90
35491;DHT22;21605;52.068;20.806;2023-11-19T09:14:16;2.50;99.90
35491;DHT22;21605;52.068;20.806;2023-11-19T09:16:43;2.50;99.90
35491;DHT22;21605;52.068;20.806;2023-11-19T09:19:09;2.40;99.90
35491;DHT22;21605;52.068;20.806;2023-11-19T09:21:34;2.50;99.90
35491;DHT22;21605;52.068;20.806;2023-11-19T09:24:04;2.50;99.90
35491;DHT22;21605;52.068;20.806;2023-11-19T09:26:29;2.50;99.90
35491;DHT22;21605;52.068;20.806;2023-11-19T09:28:56;2.40;99.90
35491;DHT22;21605;52.068;20.806;2023-11-19T09:31:21;2.40;99.90
35491;DHT22;21605;52.068;20.806;2023-11-19T09:33:47;2.30;99.90
35491;DHT22;21605;52.068;20.806;2023-11-19T09:36:13;2.30;99.90
35491;DHT22;21605;52.068;20.806;2023-11-19T09:38:43;2.30;99.90
35491;DHT22;21605;52.068;20.806;2023-11-19T09:41:10;2.30;99.90
35491;DHT22;21605;52.068;20.806;2023-11-19T09:43:39;2.30;99.90
35491;DHT22;21605;52.068;20.806;2023-11-19T09:46:06;2.40;99.90
35491;DHT22;21605;52.068;20.806;2023-11-19T09:48:35;2.30;99.90
35491;DHT22;21605;52.068;20.806;2023-11-19T09:51:03;2.40;99.90
35491;DHT22;21605;52.068;20.806;2023-11-19T09:53:30;2.30;99.90
35491;DHT22;21605;52.068;20.806;2023-11-19T09:55:56;2.40;99.90
35491;DHT22;21605;52.068;20.806;2023-11-19T09:58:22;2.30;99.90
35491;DHT22;21605;52.068;20.806;2023-11-19T10:00:49;2.30;99.90
35491;DHT22;21605;52.068;20.806;2023-11-19T10:03:15;2.30;99.90
35491;DHT22;21605;52.068;20.806;2023-11-19T10:05:40;2.30;99.90
35491;DHT22;21605;52.068;20.806;2023-11-19T10:08:07;2.30;99.90
35491;DHT22;21605;52.068;20.806;2023-11-19T10:10:34;2.30;99.90
35491;DHT22;21605;52.068;20.806;2023-11-19T10:12:59;2.30;99.90
35491;DHT22;21605;52.068;20.806;2023-11-19T10:15:26;2.40;99.90
35491;DHT22;21605;52.068;20.806;2023-11-19T10:17:56;2.40;99.90
35491;DHT22;21605;52.068;20.806;2023-11-19T10:20:22;2.30;99.90
35491;DHT22;21605;52.068;20.806;2023-11-19T10:22:48;2.30;99.90
35491;DHT22;21605;52.068;20.806;2023-11-19T10:25:24;2.60;99.90
35491;DHT22;21605;52.068;20.806;2023-11-19T10:27:51;2.30;99.90
35491;DHT22;21605;52.068;20.806;2023-11-19T10:30:24;2.30;99.90
35491;DHT22;21605;52.068;20.806;2023-11-19T10:33:12;2.30;99.90
35491;DHT22;21605;52.068;20.806;2023-11-19T10:35:56;2.30;99.90
35491;DHT22;21605;52.068;20.806;2023-11-19T10:38:22;2.30;99.90
35491;DHT22;21605;52.068;20.806;2023-11-19T10:40:49;2.30;99.90
35491;DHT22;21605;52.068;20.806;2023-11-19T10:43:16;3.30;99.90
35491;DHT22;21605;52.068;20.806;2023-11-19T10:45:43;2.30;99.90
35491;DHT22;21605;52.068;20.806;2023-11-19T10:48:09;2.50;99.90
35491;DHT22;21605;52.068;20.806;2023-11-19T10:50:36;2.50;99.90
35491;DHT22;21605;52.068;20.806;2023-11-19T10:53:03;2.60;99.90
35491;DHT22;21605;52.068;20.806;2023-11-19T10:55:34;2.50;99.90
35491;DHT22;21605;52.068;20.806;2023-11-19T10:58:05;2.50;99.90
35491;DHT22;21605;52.068;20.806;2023-11-19T11:03:15;2.40;99.90
35491;DHT22;21605;52.068;20.806;2023-11-19T11:05:42;2.40;99.90
35491;DHT22;21605;52.068;20.806;2023-11-19T11:08:09;2.40;99.90
35491;DHT22;21605;52.068;20.806;2023-11-19T11:10:41;2.30;99.90
35491;DHT22;21605;52.068;20.806;2023-11-19T11:13:08;2.40;99.90
35491;DHT22;21605;52.068;20.806;2023-11-19T11:15:34;2.40;99.90
35491;DHT22;21605;52.068;20.806;2023-11-19T11:18:03;2.40;99.90
35491;DHT22;21605;52.068;20.806;2023-11-19T11:20:30;2.40;99.90
35491;DHT22;21605;52.068;20.806;2023-11-19T11:26:19;2.40;99.90
35491;DHT22;21605;52.068;20.806;2023-11-19T11:31:49;2.40;99.90
35491;DHT22;21605;52.068;20.806;2023-11-19T11:39:33;2.30;99.90
35491;DHT22;21605;52.068;20.806;2023-11-19T11:44:59;2.30;99.90
35491;DHT22;21605;52.068;20.806;2023-11-19T11:50:20;2.40;99.90
35491;DHT22;21605;52.068;20.806;2023-11-19T11:55:27;2.30;99.90
35491;DHT22;21605;52.068;20.806;2023-11-19T11:57:57;2.30;99.90
35491;DHT22;21605;52.068;20.806;2023-11-19T12:00:33;2.20;99.90
35491;DHT22;21605;52.068;20.806;2023-11-19T12:03:05;2.30;99.90
35491;DHT22;21605;52.068;20.806;2023-11-19T12:05:31;2.30;99.90
35491;DHT22;21605;52.068;20.806;2023-11-19T12:08:04;2.30;99.90
35491;DHT22;21605;52.068;20.806;2023-11-19T12:10:36;2.30;99.90
35491;DHT22;21605;52.068;20.806;2023-11-19T12:13:05;2.30;99.90
35491;DHT22;21605;52.068;20.806;2023-11-19T12:15:33;2.20;99.90
35491;DHT22;21605;52.068;20.806;2023-11-19T12:18:19;2.30;99.90
35491;DHT22;21605;52.068;20.806;2023-11-19T12:20:45;2.30;99.90
35491;DHT22;21605;52.068;20.806;2023-11-19T12:23:11;2.30;99.90
35491;DHT22;21605;52.068;20.806;2023-11-19T12:25:36;2.30;99.90
35491;DHT22;21605;52.068;20.806;2023-11-19T12:28:02;2.40;99.90
35491;DHT22;21605;52.068;20.806;2023-11-19T12:30:29;2.30;99.90
35491;DHT22;21605;52.068;20.806;2023-11-19T12:32:55;2.30;99.90
35491;DHT22;21605;52.068;20.806;2023-11-19T12:35:21;2.30;99.90
35491;DHT22;21605;52.068;20.806;2023-11-19T12:37:49;2.30;99.90
35491;DHT22;21605;52.068;20.806;2023-11-19T12:40:20;2.30;99.90
35491;DHT22;21605;52.068;20.806;2023-11-19T12:42:51;2.20;99.90
35491;DHT22;21605;52.068;20.806;2023-11-19T12:45:17;2.30;99.90
35491;DHT22;21605;52.068;20.806;2023-11-19T12:47:44;2.40;99.90
35491;DHT22;21605;52.068;20.806;2023-11-19T12:50:13;2.40;99.90
35491;DHT22;21605;52.068;20.806;2023-11-19T12:52:39;2.40;99.90
35491;DHT22;21605;52.068;20.806;2023-11-19T12:55:06;2.40;99.90
35491;DHT22;21605;52.068;20.806;2023-11-19T12:57:49;2.40;99.90
35491;DHT22;21605;52.068;20.806;2023-11-19T13:00:22;2.30;99.90
35491;DHT22;21605;52.068;20.806;2023-11-19T13:02:53;2.30;99.90
35491;DHT22;21605;52.068;20.806;2023-11-19T13:08:04;2.20;99.90
35491;DHT22;21605;52.068;20.806;2023-11-19T13:10:31;2.30;99.90
35491;DHT22;21605;52.068;20.806;2023-11-19T13:13:09;2.20;99.90
35491;DHT22;21605;52.068;20.806;2023-11-19T13:15:35;2.10;99.90
35491;DHT22;21605;52.068;20.806;2023-11-19T13:18:01;2.10;99.90
35491;DHT22;21605;52.068;20.806;2023-11-19T13:20:28;2.20;99.90
35491;DHT22;21605;52.068;20.806;2023-11-19T13:23:04;2.10;99.90
35491;DHT22;21605;52.068;20.806;2023-11-19T13:25:31;2.10;99.90
35491;DHT22;21605;52.068;20.806;2023-11-19T13:27:57;2.10;99.90
35491;DHT22;21605;52.068;20.806;2023-11-19T13:30:24;2.10;99.90
35491;DHT22;21605;52.068;20.806;2023-11-19T13:32:50;2.10;99.90
35491;DHT22;21605;52.068;20.806;2023-11-19T13:35:17;2.10;99.90
35491;DHT22;21605;52.068;20.806;2023-11-19T13:37:44;2.10;99.90
35491;DHT22;21605;52.068;20.806;2023-11-19T13:40:10;2.00;99.90
35491;DHT22;21605;52.068;20.806;2023-11-19T13:42:41;2.10;99.90
35491;DHT22;21605;52.068;20.806;2023-11-19T13:45:09;2.10;99.90
35491;DHT22;21605;52.068;20.806;2023-11-19T13:47:42;2.10;99.90
35491;DHT22;21605;52.068;20.806;2023-11-19T13:50:13;2.00;99.90
35491;DHT22;21605;52.068;20.806;2023-11-19T13:52:40;2.10;99.90
35491;DHT22;21605;52.068;20.806;2023-11-19T13:55:07;2.00;99.90
35491;DHT22;21605;52.068;20.806;2023-11-19T13:57:37;2.10;99.90
35491;DHT22;21605;52.068;20.806;2023-11-19T14:00:03;2.00;99.90
35491;DHT22;21605;52.068;20.806;2023-11-19T14:02:36;2.10;99.90
35491;DHT22;21605;52.068;20.806;2023-11-19T14:05:02;2.10;99.90
35491;DHT22;21605;52.068;20.806;2023-11-19T14:07:28;2.00;99.90
35491;DHT22;21605;52.068;20.806;2023-11-19T14:09:54;2.10;99.90
35491;DHT22;21605;52.068;20.806;2023-11-19T14:12:19;2.00;99.90
35491;DHT22;21605;52.068;20.806;2023-11-19T14:14:45;2.00;99.90
35491;DHT22;21605;52.068;20.806;2023-11-19T14:17:11;2.00;99.90
35491;DHT22;21605;52.068;20.806;2023-11-19T14:19:37;1.90;99.90
35491;DHT22;21605;52.068;20.806;2023-11-19T14:22:04;2.00;99.90
35491;DHT22;21605;52.068;20.806;2023-11-19T14:24:30;1.90;99.90
35491;DHT22;21605;52.068;20.806;2023-11-19T14:26:56;1.90;99.90
35491;DHT22;21605;52.068;20.806;2023-11-19T14:29:24;1.90;99.90
35491;DHT22;21605;52.068;20.806;2023-11-19T14:31:52;1.90;99.90
35491;DHT22;21605;52.068;20.806;2023-11-19T14:34:19;2.00;99.90
35491;DHT22;21605;52.068;20.806;2023-11-19T14:36:45;2.00;99.90
35491;DHT22;21605;52.068;20.806;2023-11-19T14:39:11;2.00;99.90
35491;DHT22;21605;52.068;20.806;2023-11-19T14:41:36;1.90;99.90
35491;DHT22;21605;52.068;20.806;2023-11-19T14:44:02;2.00;99.90
35491;DHT22;21605;52.068;20.806;2023-11-19T14:46:29;2.00;99.90
35491;DHT22;21605;52.068;20.806;2023-11-19T14:48:54;1.90;99.90
35491;DHT22;21605;52.068;20.806;2023-11-19T14:51:20;2.00;99.90
35491;DHT22;21605;52.068;20.806;2023-11-19T14:53:46;2.00;99.90
35491;DHT22;21605;52.068;20.806;2023-11-19T14:56:12;1.90;99.90
35491;DHT22;21605;52.068;20.806;2023-11-19T14:58:38;2.00;99.90
35491;DHT22;21605;52.068;20.806;2023-11-19T15:01:05;1.90;99.90
35491;DHT22;21605;52.068;20.806;2023-11-19T15:03:31;1.90;99.90
35491;DHT22;21605;52.068;20.806;2023-11-19T15:05:56;1.90;99.90
35491;DHT22;21605;52.068;20.806;2023-11-19T15:08:22;1.80;99.90
35491;DHT22;21605;52.068;20.806;2023-11-19T15:10:48;1.80;99.90
35491;DHT22;21605;52.068;20.806;2023-11-19T15:13:14;1.90;99.90
35491;DHT22;21605;52.068;20.806;2023-11-19T15:15:39;1.80;99.90
35491;DHT22;21605;52.068;20.806;2023-11-19T15:18:05;1.80;99.90
35491;DHT22;21605;52.068;20.806;2023-11-19T15:20:31;1.90;99.90
35491;DHT22;21605;52.068;20.806;2023-11-19T15:22:57;1.80;99.90
35491;DHT22;21605;52.068;20.806;2023-11-19T15:25:23;1.80;99.90
35491;DHT22;21605;52.068;20.806;2023-11-19T15:27:49;1.80;99.90
35491;DHT22;21605;52.068;20.806;2023-11-19T15:30:15;1.80;99.90
35491;DHT22;21605;52.068;20.806;2023-11-19T15:32:41;1.70;99.90
35491;DHT22;21605;52.068;20.806;2023-11-19T15:35:08;2.80;99.90
35491;DHT22;21605;52.068;20.806;2023-11-19T15:37:34;1.80;99.90
35491;DHT22;21605;52.068;20.806;2023-11-19T15:40:00;1.80;99.90
35491;DHT22;21605;52.068;20.806;2023-11-19T15:42:26;1.70;99.90
35491;DHT22;21605;52.068;20.806;2023-11-19T15:44:51;1.80;99.90
35491;DHT22;21605;52.068;20.806;2023-11-19T15:47:17;1.80;99.90
35491;DHT22;21605;52.068;20.806;2023-11-19T15:49:42;1.80;99.90
35491;DHT22;21605;52.068;20.806;2023-11-19T15:52:10;1.80;99.90
35491;DHT22;21605;52.068;20.806;2023-11-19T15:54:36;1.80;99.90